createdAt,value
2023-03-29T00:02:03.573Z,-1.30
2023-03-29T00:04:30.423Z,-1.20
2023-03-29T00:06:57.120Z,-1.00
2023-03-29T00:09:26.556Z,-0.80
2023-03-29T00:11:53.360Z,-0.60
2023-03-29T00:14:20.185Z,-0.50
2023-03-29T00:16:47.149Z,-0.90
2023-03-29T00:19:13.869Z,-1.00
2023-03-29T00:21:40.891Z,-0.90
2023-03-29T00:24:07.603Z,-0.90
2023-03-29T00:26:34.283Z,-1.20
2023-03-29T00:29:00.982Z,-1.40
2023-03-29T00:31:28.552Z,-1.20
2023-03-29T00:33:55.285Z,-1.10
2023-03-29T00:36:22.213Z,-0.70
2023-03-29T00:38:48.980Z,-0.80
2023-03-29T00:41:15.638Z,-0.70
2023-03-29T00:43:56.539Z,-0.80
2023-03-29T00:46:23.963Z,-0.80
2023-03-29T00:48:52.912Z,-0.70
2023-03-29T00:51:20.452Z,-0.70
2023-03-29T00:53:49.257Z,-0.80
2023-03-29T00:56:20.297Z,-1.00
2023-03-29T00:58:52.985Z,-0.90
2023-03-29T01:01:25.963Z,-0.90
2023-03-29T01:03:54.915Z,-1.00
2023-03-29T01:06:24.740Z,-0.90
2023-03-29T01:08:53.742Z,-0.80
2023-03-29T01:11:22.445Z,-0.70
2023-03-29T01:13:57.286Z,-0.60
2023-03-29T01:16:25.735Z,-0.60
2023-03-29T01:18:52.506Z,-0.70
2023-03-29T01:21:29.342Z,-1.10
2023-03-29T01:24:15.286Z,-1.20
2023-03-29T01:26:45.389Z,-1.30
2023-03-29T01:29:15.391Z,-1.30
2023-03-29T01:31:47.123Z,-1.20
2023-03-29T01:34:20.122Z,-1.10
2023-03-29T01:36:51.872Z,-1.20
2023-03-29T01:39:19.202Z,-1.40
2023-03-29T01:41:57.557Z,-1.20
2023-03-29T01:44:30.711Z,-1.30
2023-03-29T01:47:16.280Z,-1.50
2023-03-29T01:49:52.166Z,-1.20
2023-03-29T01:52:24.771Z,-1.20
2023-03-29T01:54:58.587Z,-1.30
2023-03-29T01:57:26.363Z,-1.10
2023-03-29T01:59:54.445Z,-0.90
2023-03-29T02:02:21.595Z,-1.10
2023-03-29T02:04:51.772Z,-0.90
2023-03-29T02:07:20.387Z,-1.00
2023-03-29T02:09:48.994Z,-1.20
2023-03-29T02:12:16.604Z,-1.10
2023-03-29T02:14:43.276Z,-0.90
2023-03-29T02:17:15.636Z,-0.70
2023-03-29T02:19:42.801Z,-0.80
2023-03-29T02:22:10.305Z,-0.70
2023-03-29T02:24:37.377Z,-0.70
2023-03-29T02:27:04.658Z,-0.80
2023-03-29T02:29:31.318Z,-1.00
2023-03-29T02:31:57.948Z,-1.10
2023-03-29T02:34:38.906Z,-1.00
2023-03-29T02:37:12.089Z,-0.90
2023-03-29T02:39:39.384Z,-0.80
2023-03-29T02:42:06.973Z,-0.80
2023-03-29T02:44:36.431Z,-0.70
2023-03-29T02:47:06.621Z,-0.80
2023-03-29T02:49:33.300Z,-1.00
2023-03-29T02:52:04.201Z,-1.00
2023-03-29T02:54:31.596Z,-1.20
2023-03-29T02:57:00.237Z,-1.30
2023-03-29T02:59:29.804Z,-1.20
2023-03-29T03:01:56.772Z,-1.00
2023-03-29T03:04:23.482Z,-0.90
2023-03-29T03:06:50.150Z,-0.80
2023-03-29T03:09:17.056Z,-0.50
2023-03-29T03:11:43.713Z,-0.50
2023-03-29T03:14:10.497Z,-0.50
2023-03-29T03:16:37.344Z,-0.50
2023-03-29T03:19:04.044Z,-0.70
2023-03-29T03:21:30.793Z,-0.60
2023-03-29T03:23:57.443Z,-0.50
2023-03-29T03:26:24.973Z,-0.40
2023-03-29T03:28:51.618Z,-0.30
2023-03-29T03:31:19.581Z,-0.40
2023-03-29T03:33:46.348Z,-0.50
2023-03-29T03:36:13.163Z,-0.50
2023-03-29T03:38:40.056Z,-0.30
2023-03-29T03:41:07.258Z,-0.40
2023-03-29T03:43:34.055Z,-0.20
2023-03-29T03:46:01.319Z,-0.50
2023-03-29T03:48:28.024Z,-0.50
2023-03-29T03:50:55.872Z,-0.20
2023-03-29T03:53:23.530Z,-0.20
2023-03-29T03:55:50.968Z,-0.40
2023-03-29T03:58:17.972Z,-0.40
2023-03-29T04:00:45.180Z,-0.10
2023-03-29T04:03:11.994Z,-0.20
2023-03-29T04:05:39.941Z,-0.30
2023-03-29T04:08:06.926Z,-0.30
2023-03-29T04:10:34.377Z,-0.30
2023-03-29T04:13:04.973Z,-0.20
2023-03-29T04:15:32.573Z,-0.30
2023-03-29T04:18:00.046Z,-0.40
2023-03-29T04:20:27.193Z,-0.40
2023-03-29T04:22:54.044Z,-0.20
2023-03-29T04:25:22.356Z,-0.10
2023-03-29T04:27:49.516Z,-0.20
2023-03-29T04:30:16.990Z,-0.30
2023-03-29T04:32:43.647Z,-0.10
2023-03-29T04:35:10.592Z,0.00
2023-03-29T04:37:40.307Z,0.00
2023-03-29T04:40:14.365Z,0.10
2023-03-29T04:42:45.840Z,0.00
2023-03-29T04:45:18.082Z,0.00
2023-03-29T04:47:45.714Z,-0.10
2023-03-29T04:50:13.837Z,0.00
2023-03-29T04:52:40.986Z,0.20
2023-03-29T04:55:07.961Z,0.20
2023-03-29T04:57:34.707Z,0.20
2023-03-29T05:00:01.400Z,0.20
2023-03-29T05:02:30.948Z,0.20
2023-03-29T05:04:57.679Z,0.30
2023-03-29T05:07:24.597Z,0.30
2023-03-29T05:09:51.958Z,0.20
2023-03-29T05:12:18.630Z,0.00
2023-03-29T05:14:45.671Z,0.00
2023-03-29T05:17:12.365Z,0.10
2023-03-29T05:19:39.065Z,0.10
2023-03-29T05:22:05.732Z,0.10
2023-03-29T05:24:32.410Z,0.10
2023-03-29T05:26:59.078Z,0.30
2023-03-29T05:29:25.971Z,0.30
2023-03-29T05:31:52.948Z,0.40
2023-03-29T05:34:20.065Z,0.40
2023-03-29T05:36:46.785Z,0.50
2023-03-29T05:39:13.538Z,0.60
2023-03-29T05:41:41.642Z,0.70
2023-03-29T05:44:08.481Z,0.60
2023-03-29T05:46:35.532Z,0.70
2023-03-29T05:49:02.477Z,0.80
2023-03-29T05:51:29.374Z,0.80
2023-03-29T05:53:56.229Z,0.80
2023-03-29T05:56:22.895Z,1.00
2023-03-29T05:58:49.595Z,1.10
2023-03-29T06:01:18.072Z,1.20
2023-03-29T06:03:46.339Z,1.40
2023-03-29T06:06:16.469Z,1.20
2023-03-29T06:08:43.767Z,1.40
2023-03-29T06:11:11.938Z,1.40
2023-03-29T06:13:39.026Z,1.30
2023-03-29T06:16:06.413Z,1.40
2023-03-29T06:18:33.529Z,1.40
2023-03-29T06:21:02.043Z,1.40
2023-03-29T06:23:29.414Z,1.50
2023-03-29T06:25:56.396Z,1.50
2023-03-29T06:28:24.061Z,1.50
2023-03-29T06:30:50.774Z,1.60
2023-03-29T06:33:18.788Z,1.60
2023-03-29T06:35:46.916Z,1.60
2023-03-29T06:38:15.161Z,1.70
2023-03-29T06:40:43.205Z,1.70
2023-03-29T06:43:09.968Z,1.70
2023-03-29T06:45:38.074Z,1.70
2023-03-29T06:48:05.913Z,2.00
2023-03-29T06:50:32.686Z,1.90
2023-03-29T06:52:59.355Z,2.00
2023-03-29T06:55:27.139Z,2.10
2023-03-29T06:57:54.540Z,2.10
2023-03-29T07:00:30.685Z,2.10
2023-03-29T07:02:58.665Z,2.10
2023-03-29T07:05:28.679Z,2.00
2023-03-29T07:07:57.097Z,2.10
2023-03-29T07:10:26.163Z,2.20
2023-03-29T07:12:52.994Z,2.30
2023-03-29T07:15:20.802Z,2.40
2023-03-29T07:17:48.170Z,2.40
2023-03-29T07:20:15.493Z,2.40
2023-03-29T07:22:43.560Z,2.30
2023-03-29T07:25:12.320Z,2.30
2023-03-29T07:27:40.239Z,2.20
2023-03-29T07:30:11.184Z,2.40
2023-03-29T07:32:38.974Z,2.40
2023-03-29T07:35:07.217Z,2.50
2023-03-29T07:37:35.251Z,2.60
2023-03-29T07:40:04.289Z,2.70
2023-03-29T07:42:31.010Z,2.70
2023-03-29T07:44:58.625Z,2.80
2023-03-29T07:47:26.039Z,2.90
2023-03-29T07:49:52.702Z,2.90
2023-03-29T07:52:19.356Z,2.90
2023-03-29T07:54:46.190Z,3.10
2023-03-29T07:57:12.868Z,3.10
2023-03-29T07:59:39.617Z,3.30
2023-03-29T08:02:06.799Z,3.30
2023-03-29T08:04:33.745Z,3.40
2023-03-29T08:07:00.694Z,3.40
2023-03-29T08:09:27.791Z,3.40
2023-03-29T08:11:54.454Z,3.40
2023-03-29T08:14:21.980Z,3.50
2023-03-29T08:16:48.702Z,3.50
2023-03-29T08:19:16.652Z,3.70
2023-03-29T08:21:43.349Z,3.80
2023-03-29T08:24:10.030Z,3.80
2023-03-29T08:26:36.781Z,4.00
2023-03-29T08:29:04.069Z,3.90
2023-03-29T08:31:30.860Z,3.90
2023-03-29T08:33:57.598Z,4.00
2023-03-29T08:36:24.254Z,4.10
2023-03-29T08:38:51.532Z,4.10
2023-03-29T08:41:21.234Z,4.20
2023-03-29T08:43:50.947Z,4.20
2023-03-29T08:46:17.657Z,4.20
2023-03-29T08:48:48.165Z,4.10
2023-03-29T08:51:21.716Z,4.10
2023-03-29T08:53:53.787Z,4.20
2023-03-29T08:56:23.243Z,4.20
2023-03-29T08:58:51.390Z,4.20
2023-03-29T09:01:19.107Z,4.40
2023-03-29T09:03:51.798Z,4.30
2023-03-29T09:06:20.390Z,4.40
2023-03-29T09:08:48.039Z,4.20
2023-03-29T09:11:20.801Z,4.20
2023-03-29T09:13:47.456Z,4.40
2023-03-29T09:16:37.661Z,4.50
2023-03-29T09:19:10.739Z,4.50
2023-03-29T09:21:46.982Z,4.40
2023-03-29T09:24:33.856Z,4.40
2023-03-29T09:27:02.936Z,4.50
2023-03-29T09:29:29.810Z,4.60
2023-03-29T09:31:56.799Z,4.60
2023-03-29T09:34:28.128Z,4.60
2023-03-29T09:36:56.820Z,4.70
2023-03-29T09:39:26.389Z,4.60
2023-03-29T09:42:04.354Z,4.60
2023-03-29T09:44:33.401Z,4.60
2023-03-29T09:47:07.561Z,4.70
2023-03-29T09:49:40.174Z,4.60
2023-03-29T09:52:11.473Z,4.40
2023-03-29T09:54:38.196Z,4.50
2023-03-29T09:57:04.922Z,4.80
2023-03-29T09:59:31.608Z,5.00
2023-03-29T10:02:06.529Z,5.00
2023-03-29T10:04:33.238Z,5.10
2023-03-29T10:07:00.074Z,5.10
2023-03-29T10:09:28.993Z,5.10
2023-03-29T10:11:57.184Z,5.10
2023-03-29T10:14:35.428Z,5.10
2023-03-29T10:17:04.379Z,5.30
2023-03-29T10:19:35.198Z,5.40
2023-03-29T10:22:14.448Z,5.40
2023-03-29T10:24:47.579Z,5.40
2023-03-29T10:27:14.359Z,5.40
2023-03-29T10:29:42.412Z,5.40
2023-03-29T10:32:50.608Z,5.40
2023-03-29T10:35:33.787Z,5.50
2023-03-29T10:38:37.773Z,5.60
2023-03-29T10:41:10.144Z,5.80
2023-03-29T10:43:45.425Z,5.70
2023-03-29T10:46:20.788Z,5.40
2023-03-29T10:48:51.900Z,5.40
2023-03-29T10:51:19.383Z,5.30
2023-03-29T10:53:46.712Z,5.30
2023-03-29T10:56:13.793Z,5.30
2023-03-29T10:58:59.340Z,5.40
2023-03-29T11:01:31.741Z,5.50
2023-03-29T11:04:04.094Z,5.70
2023-03-29T11:06:34.728Z,5.80
2023-03-29T11:09:02.994Z,5.80
2023-03-29T11:11:48.540Z,5.80
2023-03-29T11:14:21.972Z,5.90
2023-03-29T11:17:07.542Z,5.90
2023-03-29T11:19:56.596Z,5.80
2023-03-29T11:22:29.327Z,5.90
2023-03-29T11:25:08.076Z,5.80
2023-03-29T11:27:41.812Z,5.80
2023-03-29T11:30:13.261Z,5.70
2023-03-29T11:32:46.513Z,5.90
2023-03-29T11:38:45.426Z,5.90
2023-03-29T11:41:19.812Z,5.90
2023-03-29T11:44:00.698Z,6.00
2023-03-29T11:46:39.116Z,6.00
2023-03-29T11:49:11.970Z,6.10
2023-03-29T11:51:46.209Z,6.20
2023-03-29T11:54:12.923Z,6.10
2023-03-29T11:56:54.934Z,6.10
2023-03-29T11:59:24.229Z,6.00
2023-03-29T12:02:09.735Z,6.00
2023-03-29T12:04:43.518Z,6.10
2023-03-29T12:07:17.326Z,6.10
2023-03-29T12:09:45.048Z,6.20
2023-03-29T12:12:20.858Z,6.40
2023-03-29T12:14:48.024Z,6.50
2023-03-29T12:17:17.296Z,6.60
2023-03-29T12:19:48.921Z,6.70
2023-03-29T12:22:15.718Z,7.10
2023-03-29T12:28:37.909Z,7.60
2023-03-29T12:31:46.499Z,7.60
2023-03-29T12:34:34.147Z,7.30
2023-03-29T12:37:06.500Z,7.80
2023-03-29T12:39:33.601Z,8.00
2023-03-29T12:42:26.403Z,7.70
2023-03-29T12:44:59.822Z,7.70
2023-03-29T12:47:27.877Z,7.40
2023-03-29T12:50:42.740Z,7.50
2023-03-29T12:53:15.065Z,7.50
2023-03-29T12:55:46.338Z,7.50
2023-03-29T12:58:33.337Z,7.60
2023-03-29T13:07:56.068Z,7.50
2023-03-29T13:10:30.861Z,7.50
2023-03-29T13:13:08.414Z,7.70
2023-03-29T13:15:35.916Z,7.90
2023-03-29T13:18:06.251Z,7.90
2023-03-29T13:20:37.620Z,8.10
2023-03-29T13:23:22.958Z,8.40
2023-03-29T13:25:52.732Z,8.50
2023-03-29T13:28:19.390Z,8.80
2023-03-29T13:30:50.181Z,8.70
2023-03-29T13:33:35.281Z,8.30
2023-03-29T13:36:05.562Z,8.20
2023-03-29T13:38:33.207Z,8.20
2023-03-29T13:41:07.380Z,8.30
2023-03-29T13:43:34.248Z,8.20
2023-03-29T13:46:01.098Z,8.80
2023-03-29T13:48:32.451Z,8.90
2023-03-29T13:51:08.032Z,8.70
2023-03-29T13:53:46.785Z,8.60
2023-03-29T13:56:18.837Z,8.90
2023-03-29T13:58:53.183Z,8.60
2023-03-29T14:01:58.754Z,8.70
2023-03-29T14:04:27.082Z,8.80
2023-03-29T14:06:55.308Z,8.60
2023-03-29T14:09:30.139Z,8.60
2023-03-29T14:11:58.177Z,8.90
2023-03-29T14:14:25.772Z,9.00
2023-03-29T14:16:54.133Z,9.10
2023-03-29T14:19:38.885Z,9.20
2023-03-29T14:22:10.148Z,8.90
2023-03-29T14:24:45.005Z,9.20
2023-03-29T14:27:12.126Z,9.20
2023-03-29T14:29:38.813Z,9.10
2023-03-29T14:32:10.326Z,9.10
2023-03-29T14:34:37.496Z,9.40
2023-03-29T14:37:04.601Z,9.90
2023-03-29T14:39:33.145Z,10.10
2023-03-29T14:42:00.363Z,10.60
2023-03-29T14:44:28.658Z,11.00
2023-03-29T14:46:55.988Z,11.30
2023-03-29T14:49:23.258Z,11.20
2023-03-29T14:51:50.513Z,10.90
2023-03-29T14:54:23.290Z,10.60
2023-03-29T14:56:50.256Z,10.00
2023-03-29T14:59:28.084Z,9.80
2023-03-29T15:01:55.028Z,9.60
2023-03-29T15:04:22.034Z,9.30
2023-03-29T15:06:50.826Z,9.60
2023-03-29T15:09:19.553Z,9.70
2023-03-29T15:11:53.722Z,9.50
2023-03-29T15:14:21.774Z,9.60
2023-03-29T15:16:49.660Z,9.50
2023-03-29T15:19:18.229Z,9.20
2023-03-29T15:21:45.314Z,9.20
2023-03-29T15:24:19.900Z,9.10
2023-03-29T15:26:57.495Z,8.80
2023-03-29T15:29:24.349Z,9.00
2023-03-29T15:31:56.149Z,8.90
2023-03-29T15:34:41.236Z,8.90
2023-03-29T15:37:11.033Z,8.80
2023-03-29T15:39:57.749Z,8.70
2023-03-29T15:42:24.881Z,8.70
2023-03-29T15:45:00.622Z,8.70
2023-03-29T15:47:28.023Z,8.70
2023-03-29T15:49:54.821Z,8.70
2023-03-29T15:52:22.272Z,8.60
2023-03-29T15:54:48.981Z,8.70
2023-03-29T15:57:16.248Z,8.60
2023-03-29T15:59:43.631Z,8.60
2023-03-29T16:02:12.429Z,8.60
2023-03-29T16:04:39.228Z,8.60
2023-03-29T16:07:07.478Z,8.50
2023-03-29T16:09:34.578Z,8.50
2023-03-29T16:12:01.404Z,8.40
2023-03-29T16:14:30.409Z,8.50
2023-03-29T16:17:00.967Z,8.50
2023-03-29T16:19:28.807Z,8.50
2023-03-29T16:21:55.716Z,8.40
2023-03-29T16:24:24.200Z,8.40
2023-03-29T16:26:54.659Z,8.30
2023-03-29T16:29:22.468Z,8.30
2023-03-29T16:31:49.373Z,8.20
2023-03-29T16:34:18.824Z,8.10
2023-03-29T16:36:46.295Z,8.10
2023-03-29T16:39:13.713Z,8.10
2023-03-29T16:41:41.109Z,8.00
2023-03-29T16:44:07.831Z,7.80
2023-03-29T16:46:34.800Z,7.80
2023-03-29T16:49:01.613Z,7.80
2023-03-29T16:51:28.266Z,7.80
2023-03-29T16:53:56.830Z,7.80
2023-03-29T16:56:23.526Z,7.70
2023-03-29T16:58:50.258Z,7.70
2023-03-29T17:01:18.079Z,7.60
2023-03-29T17:03:44.811Z,7.60
2023-03-29T17:06:11.526Z,7.50
2023-03-29T17:08:39.046Z,7.50
2023-03-29T17:11:07.136Z,7.50
2023-03-29T17:13:33.883Z,7.30
2023-03-29T17:16:01.403Z,7.30
2023-03-29T17:18:28.413Z,7.10
2023-03-29T17:20:56.083Z,7.10
2023-03-29T17:23:22.869Z,7.10
2023-03-29T17:25:49.575Z,6.80
2023-03-29T17:28:16.434Z,6.90
2023-03-29T17:30:44.771Z,7.00
2023-03-29T17:33:11.726Z,7.00
2023-03-29T17:35:38.496Z,6.70
2023-03-29T17:38:05.189Z,6.30
2023-03-29T17:40:31.963Z,6.40
2023-03-29T17:42:58.670Z,6.60
2023-03-29T17:45:25.746Z,6.40
2023-03-29T17:47:52.441Z,6.40
2023-03-29T17:50:19.217Z,6.20
2023-03-29T17:52:45.876Z,6.20
2023-03-29T17:55:13.751Z,6.50
2023-03-29T17:57:40.953Z,6.50
2023-03-29T18:00:08.751Z,6.60
2023-03-29T18:02:37.028Z,6.50
2023-03-29T18:05:04.479Z,6.10
2023-03-29T18:07:31.588Z,6.10
2023-03-29T18:09:58.532Z,6.00
2023-03-29T18:12:26.043Z,5.90
2023-03-29T18:14:52.813Z,5.80
2023-03-29T18:17:19.468Z,5.90
2023-03-29T18:19:46.413Z,6.00
2023-03-29T18:22:13.093Z,5.70
2023-03-29T18:24:39.734Z,5.10
2023-03-29T18:27:06.626Z,5.10
2023-03-29T18:29:33.275Z,5.40
2023-03-29T18:32:02.890Z,5.60
2023-03-29T18:34:30.398Z,4.70
2023-03-29T18:36:57.610Z,4.40
2023-03-29T18:39:24.295Z,4.60
2023-03-29T18:41:51.157Z,4.90
2023-03-29T18:44:17.851Z,5.00
2023-03-29T18:46:44.805Z,4.60
2023-03-29T18:49:13.151Z,4.20
2023-03-29T18:51:42.079Z,4.20
2023-03-29T18:54:09.049Z,4.10
2023-03-29T18:56:35.967Z,4.20
2023-03-29T18:59:06.112Z,4.10
2023-03-29T19:01:33.189Z,3.30
2023-03-29T19:03:59.973Z,3.80
2023-03-29T19:06:26.708Z,4.00
2023-03-29T19:08:54.212Z,3.70
2023-03-29T19:11:21.402Z,3.70
2023-03-29T19:13:50.816Z,3.70
2023-03-29T19:16:17.649Z,3.60
2023-03-29T19:18:44.523Z,3.40
2023-03-29T19:21:11.511Z,3.40
2023-03-29T19:23:40.383Z,3.50
2023-03-29T19:26:07.326Z,3.30
2023-03-29T19:28:34.416Z,3.20
2023-03-29T19:31:01.899Z,3.00
2023-03-29T19:33:29.506Z,3.20
2023-03-29T19:36:28.702Z,3.20
2023-03-29T19:38:55.729Z,2.90
2023-03-29T19:41:41.883Z,3.10
2023-03-29T19:44:08.641Z,3.20
2023-03-29T19:46:35.386Z,2.60
2023-03-29T19:49:04.332Z,2.40
2023-03-29T19:51:32.341Z,2.50
2023-03-29T19:53:59.020Z,2.70
2023-03-29T19:56:26.130Z,2.50
2023-03-29T19:58:52.838Z,2.50
2023-03-29T20:01:21.104Z,2.20
2023-03-29T20:03:50.871Z,2.30
2023-03-29T20:06:18.142Z,2.20
2023-03-29T20:08:45.242Z,2.00
2023-03-29T20:11:12.409Z,1.90
2023-03-29T20:13:41.377Z,2.10
2023-03-29T20:16:09.632Z,2.10
2023-03-29T20:18:41.860Z,2.10
2023-03-29T20:21:09.321Z,1.80
2023-03-29T20:23:36.388Z,1.60
2023-03-29T20:26:03.297Z,1.60
2023-03-29T20:28:29.984Z,1.70
2023-03-29T20:30:56.652Z,1.80
2023-03-29T20:33:23.757Z,1.80
2023-03-29T20:35:50.575Z,1.70
2023-03-29T20:38:17.265Z,2.00
2023-03-29T20:40:44.905Z,2.00
2023-03-29T20:43:13.444Z,1.80
2023-03-29T20:45:52.745Z,1.50
2023-03-29T20:48:23.230Z,1.50
2023-03-29T20:50:50.707Z,1.70
2023-03-29T20:53:18.380Z,1.70
2023-03-29T20:55:45.212Z,1.80
2023-03-29T20:58:11.940Z,1.70
2023-03-29T21:00:40.353Z,1.50
2023-03-29T21:03:08.550Z,1.50
2023-03-29T21:05:35.589Z,1.60
2023-03-29T21:08:03.704Z,1.60
2023-03-29T21:10:30.941Z,1.90
2023-03-29T21:13:02.462Z,1.50
2023-03-29T21:15:30.760Z,1.30
2023-03-29T21:17:58.039Z,1.20
2023-03-29T21:20:24.962Z,1.30
2023-03-29T21:22:51.750Z,1.40
2023-03-29T21:25:19.002Z,0.90
2023-03-29T21:27:45.906Z,0.80
2023-03-29T21:30:13.054Z,0.80
2023-03-29T21:32:40.010Z,0.80
2023-03-29T21:35:07.007Z,1.20
2023-03-29T21:37:33.668Z,1.20
2023-03-29T21:40:00.559Z,1.20
2023-03-29T21:42:27.233Z,1.40
2023-03-29T21:44:53.918Z,1.30
2023-03-29T21:47:20.846Z,1.20
2023-03-29T21:49:47.497Z,1.10
2023-03-29T21:52:14.237Z,1.30
2023-03-29T21:54:40.943Z,1.30
2023-03-29T21:57:07.606Z,1.10
2023-03-29T21:59:34.495Z,1.00
2023-03-29T22:02:01.583Z,1.10
2023-03-29T22:04:36.545Z,1.10
2023-03-29T22:07:05.001Z,1.00
2023-03-29T22:09:32.153Z,1.40
2023-03-29T22:11:59.807Z,1.10
2023-03-29T22:14:28.571Z,1.20
2023-03-29T22:16:55.410Z,1.10
2023-03-29T22:19:22.230Z,1.20
2023-03-29T22:21:48.885Z,1.30
2023-03-29T22:24:16.097Z,1.40
2023-03-29T22:26:44.937Z,1.50
2023-03-29T22:29:12.005Z,1.60
2023-03-29T22:31:39.495Z,1.50
2023-03-29T22:34:06.804Z,1.50
2023-03-29T22:36:33.875Z,1.50
2023-03-29T22:39:00.744Z,1.50
2023-03-29T22:41:28.203Z,1.60
2023-03-29T22:43:56.025Z,1.40
2023-03-29T22:46:23.201Z,1.30
2023-03-29T22:48:49.965Z,1.10
2023-03-29T22:51:16.813Z,0.60
2023-03-29T22:53:43.509Z,0.70
2023-03-29T22:56:10.443Z,0.80
2023-03-29T22:58:37.729Z,1.00
2023-03-29T23:01:05.481Z,1.30
2023-03-29T23:03:32.612Z,1.10
2023-03-29T23:06:02.360Z,1.20
2023-03-29T23:08:30.803Z,1.20
2023-03-29T23:10:57.897Z,1.30
2023-03-29T23:13:25.990Z,1.10
2023-03-29T23:15:54.288Z,1.10
2023-03-29T23:18:21.426Z,1.20
2023-03-29T23:20:49.013Z,1.30
2023-03-29T23:23:16.294Z,1.40
2023-03-29T23:25:43.630Z,1.50
2023-03-29T23:28:10.675Z,1.60
2023-03-29T23:30:38.569Z,1.60
2023-03-29T23:33:06.059Z,1.70
2023-03-29T23:35:32.785Z,1.70
2023-03-29T23:37:59.804Z,1.80
2023-03-29T23:40:27.757Z,2.00
2023-03-29T23:42:59.433Z,2.20
2023-03-29T23:45:29.365Z,2.00
2023-03-29T23:47:57.122Z,1.70
2023-03-29T23:50:23.965Z,1.50
2023-03-29T23:52:51.711Z,1.80
2023-03-29T23:55:18.933Z,1.90
2023-03-29T23:57:45.685Z,1.80
